This is the latest recevied weather packets stored in our database for station/object KI4HRG. If no packets are shown the sender has not sent any weather packets the latest 10 day(s).
| Time | Temp. | Humidity | Pressure | Rain* | Wind** | Luminosity | Snow |
|---|---|---|---|---|---|---|---|
| 1787593618 | 33.33° C | 54% | 1016.2 hPa | 0 mm | - | 723 W/m² | - |
| 1787593313 | 33.89° C | 54% | 1016.1 hPa | 0 mm | - | 176 W/m² | - |
| 1787593008 | 33.33° C | 55% | 1016.2 hPa | 0 mm | - | 740 W/m² | - |
| 1787592703 | 32.78° C | 54% | 1016.4 hPa | 0 mm | - | 590 W/m² | - |
| 1787592403 | 33.33° C | 55% | 1016.7 hPa | 0 mm | - | 715 W/m² | - |
| 1787592098 | 32.78° C | 56% | 1016.5 hPa | 0 mm | - | 682 W/m² | - |
| 1787591793 | 32.22° C | 58% | 1016.4 hPa | 0 mm | - | 667 W/m² | - |
| 1787591488 | 32.78° C | 57% | 1016.5 hPa | 0 mm | - | 161 W/m² | - |
| 1787591184 | 33.33° C | 54% | 1016.5 hPa | 0 mm | - | 216 W/m² | - |
| 1787590881 | 32.22° C | 57% | 1016.4 hPa | 0 mm | - | 303 W/m² | - |
| 1787590575 | 33.89° C | 53% | 1016.7 hPa | 0 mm | - | 743 W/m² | - |
| 1787590270 | 33.89° C | 53% | 1016.6 hPa | 0 mm | - | 695 W/m² | - |
| 1787589965 | 33.89° C | 53% | 1016.8 hPa | 0 mm | - | 752 W/m² | - |
| 1787589662 | 32.22° C | 56% | 1016.7 hPa | 0 mm | - | 715 W/m² | - |
| 1787589361 | 32.22° C | 57% | 1016.8 hPa | 0 mm | - | 700 W/m² | - |
| 1787589057 | 31.67° C | 58% | 1016.6 hPa | 0 mm | - | 709 W/m² | - |
| 1787588752 | 31.67° C | 57% | 1017 hPa | 0 mm | - | 701 W/m² | - |
| 1787588449 | 31.67° C | 57% | 1017 hPa | 0 mm | - | 667 W/m² | - |
| 1787588148 | 31.67° C | 56% | 1017.1 hPa | 0 mm | - | 715 W/m² | - |
| 1787587844 | 31.67° C | 58% | 1017 hPa | 0 mm | - | 718 W/m² | - |
| 1787587544 | 31.11° C | 58% | 1017.2 hPa | 0 mm | - | 659 W/m² | - |
| 1787587238 | 30.56° C | 60% | 1017.3 hPa | 0 mm | - | 706 W/m² | - |
| 1787586937 | 30.56° C | 59% | 1017.2 hPa | 0 mm | - | 698 W/m² | - |
| 1787586632 | 30.56° C | 60% | 1017.3 hPa | 0 mm | - | 601 W/m² | - |
| 1787586328 | 30° C | 62% | 1017.3 hPa | 0 mm | - | 572 W/m² | - |
* Rain latest hour (hover to see other rain measurements)
** Current wind speed in m/s (hover to see current wind gust speed)